createdAt,value
2022-10-12T00:02:13.922Z,69.65
2022-10-12T00:05:00.862Z,69.35
2022-10-12T00:07:47.830Z,69.34
2022-10-12T00:10:34.833Z,68.54
2022-10-12T00:13:15.197Z,68.51
2022-10-12T00:16:01.837Z,68.22
2022-10-12T00:18:42.589Z,68.68
2022-10-12T00:21:30.866Z,68.53
2022-10-12T00:24:17.819Z,68.13
2022-10-12T00:27:04.876Z,67.71
2022-10-12T00:29:44.853Z,68.93
2022-10-12T00:32:25.292Z,68.39
2022-10-12T00:35:11.822Z,68.34
2022-10-12T00:38:02.796Z,68.00
2022-10-12T00:40:42.994Z,67.73
2022-10-12T00:43:40.774Z,67.76
2022-10-12T00:46:35.980Z,67.61
2022-10-12T00:49:30.806Z,67.62
2022-10-12T00:52:22.799Z,67.41
2022-10-12T00:55:04.443Z,67.55
2022-10-12T00:57:50.794Z,67.66
2022-10-12T01:00:32.676Z,67.72
2022-10-12T01:03:22.800Z,67.82
2022-10-12T01:06:10.785Z,68.15
2022-10-12T01:08:52.459Z,68.25
2022-10-12T01:11:39.761Z,69.00
2022-10-12T01:14:19.871Z,69.29
2022-10-12T01:17:20.951Z,69.39
2022-10-12T01:20:22.859Z,69.84
2022-10-12T01:23:49.728Z,69.97
2022-10-12T01:27:06.724Z,69.90
2022-10-12T01:30:11.738Z,70.35
2022-10-12T01:33:01.798Z,70.56
2022-10-12T01:36:14.758Z,70.79
2022-10-12T01:39:21.727Z,70.82
2022-10-12T01:42:14.766Z,71.41
2022-10-12T01:44:54.825Z,71.73
2022-10-12T01:47:44.725Z,71.59
2022-10-12T01:50:26.824Z,71.49
2022-10-12T01:53:30.737Z,71.32
2022-10-12T01:56:16.846Z,71.40
2022-10-12T01:59:14.689Z,71.05
2022-10-12T02:02:03.840Z,71.41
2022-10-12T02:05:03.682Z,71.40
2022-10-12T02:07:50.725Z,70.90
2022-10-12T02:10:38.481Z,71.01
2022-10-12T02:13:28.692Z,71.06
2022-10-12T02:16:15.332Z,70.92
2022-10-12T02:19:07.702Z,71.42
2022-10-12T02:21:56.687Z,71.12
2022-10-12T02:24:48.670Z,71.30
2022-10-12T02:27:29.957Z,70.52
2022-10-12T02:30:21.109Z,71.21
2022-10-12T02:33:13.396Z,70.63
2022-10-12T02:36:11.630Z,70.61
2022-10-12T02:39:11.807Z,70.96
2022-10-12T02:41:55.683Z,71.50
2022-10-12T02:44:46.654Z,71.00
2022-10-12T02:47:35.893Z,70.63
2022-10-12T02:50:24.669Z,71.22
2022-10-12T02:53:05.835Z,71.35
2022-10-12T02:55:56.638Z,71.96
2022-10-12T02:58:43.626Z,72.31
2022-10-12T03:01:24.079Z,72.20
2022-10-12T03:04:10.598Z,72.26
2022-10-12T03:25:30.425Z,75.33
2022-10-12T03:28:10.839Z,74.53
2022-10-12T03:30:58.421Z,73.67
2022-10-12T03:33:38.840Z,72.57
2022-10-12T03:36:25.462Z,71.58
2022-10-12T03:39:05.869Z,71.58
2022-10-12T03:41:52.414Z,70.97
2022-10-12T03:44:32.796Z,70.78
2022-10-12T03:47:19.409Z,70.16
2022-10-12T03:50:06.427Z,69.61
2022-10-12T03:52:53.382Z,70.03
2022-10-12T03:55:33.994Z,69.41
2022-10-12T03:58:20.355Z,69.28
2022-10-12T04:01:07.457Z,68.71
2022-10-12T04:03:54.396Z,68.76
2022-10-12T04:06:34.773Z,68.28
2022-10-12T04:09:21.353Z,68.52
2022-10-12T04:12:01.976Z,68.78
2022-10-12T04:14:48.367Z,69.42
2022-10-12T04:17:28.845Z,69.49
2022-10-12T04:20:15.364Z,70.55
2022-10-12T04:23:02.386Z,70.59
2022-10-12T04:25:49.442Z,70.54
2022-10-12T04:28:29.412Z,70.33
2022-10-12T04:31:09.737Z,71.06
2022-10-12T04:33:56.382Z,72.39
2022-10-12T04:36:36.735Z,73.06
2022-10-12T04:39:23.358Z,73.09
2022-10-12T04:42:03.923Z,74.18
2022-10-12T04:44:50.294Z,70.46
2022-10-12T04:47:30.691Z,69.52
2022-10-12T04:50:18.327Z,69.62
2022-10-12T04:53:05.423Z,69.23
2022-10-12T04:55:45.345Z,68.84
2022-10-12T04:58:25.750Z,68.42
2022-10-12T05:01:12.393Z,67.54
2022-10-12T05:03:59.267Z,66.90
2022-10-12T05:06:39.473Z,66.20
2022-10-12T05:09:19.320Z,66.14
2022-10-12T05:11:59.694Z,65.54
2022-10-12T05:14:46.317Z,65.57
2022-10-12T05:17:26.698Z,64.36
2022-10-12T05:20:13.275Z,64.35
2022-10-12T05:22:53.692Z,63.82
2022-10-12T05:25:42.322Z,63.45
2022-10-12T05:28:29.372Z,63.20
2022-10-12T05:31:09.427Z,62.45
2022-10-12T05:33:56.292Z,61.75
2022-10-12T05:36:36.380Z,62.07
2022-10-12T05:39:23.268Z,60.76
2022-10-12T05:42:03.340Z,61.26
2022-10-12T05:44:50.280Z,61.25
2022-10-12T05:47:37.497Z,60.08
2022-10-12T05:50:17.693Z,59.34
2022-10-12T05:53:04.239Z,58.77
2022-10-12T05:55:56.174Z,58.51
2022-10-12T05:58:44.272Z,59.01
2022-10-12T06:01:24.693Z,57.43
2022-10-12T06:04:11.253Z,57.41
2022-10-12T06:06:51.670Z,55.46
2022-10-12T06:09:38.229Z,55.63
2022-10-12T06:12:18.673Z,55.46
2022-10-12T06:15:05.258Z,54.54
2022-10-12T06:17:52.250Z,54.14
2022-10-12T06:20:39.234Z,53.93
2022-10-12T06:23:34.245Z,51.64
2022-10-12T06:26:14.666Z,51.60
2022-10-12T06:29:01.215Z,50.04
2022-10-12T06:31:51.671Z,50.64
2022-10-12T06:34:31.305Z,50.07
2022-10-12T06:37:44.300Z,49.33
2022-10-12T06:40:18.346Z,48.37
2022-10-12T06:43:09.241Z,48.61
2022-10-12T06:45:49.565Z,47.96
2022-10-12T06:48:36.193Z,48.03
2022-10-12T06:51:16.309Z,46.56
2022-10-12T06:54:03.232Z,46.19
2022-10-12T06:56:54.287Z,45.78
2022-10-12T06:59:36.636Z,45.11
2022-10-12T07:02:26.204Z,44.01
2022-10-12T07:05:14.220Z,43.41
2022-10-12T07:08:01.153Z,44.09
2022-10-12T07:10:48.183Z,44.07
2022-10-12T07:13:28.310Z,42.70
2022-10-12T07:16:15.161Z,42.87
2022-10-12T07:19:02.143Z,43.00
2022-10-12T07:21:49.150Z,41.58
2022-10-12T07:24:43.204Z,40.43
2022-10-12T07:27:23.691Z,39.80
2022-10-12T07:30:10.162Z,40.68
2022-10-12T07:32:50.689Z,40.65
2022-10-12T07:35:51.481Z,40.70
2022-10-12T07:38:44.144Z,40.49
2022-10-12T07:41:24.263Z,41.77
2022-10-12T07:44:11.138Z,40.76
2022-10-12T07:46:51.329Z,40.65
2022-10-12T07:49:38.165Z,40.67
2022-10-12T07:52:25.154Z,40.09
2022-10-12T07:55:12.109Z,41.59
2022-10-12T07:57:59.095Z,42.05
2022-10-12T08:00:47.102Z,42.48
2022-10-12T08:03:34.117Z,42.86
2022-10-12T08:06:24.088Z,42.63
2022-10-12T08:09:05.212Z,43.75
2022-10-12T08:11:52.130Z,43.11
2022-10-12T08:14:39.129Z,44.95
2022-10-12T08:17:19.487Z,44.02
2022-10-12T08:20:06.066Z,44.25
2022-10-12T08:22:53.086Z,43.87
2022-10-12T08:25:40.156Z,44.25
2022-10-12T08:28:20.147Z,44.64
2022-10-12T08:31:00.747Z,44.30
2022-10-12T08:33:47.096Z,43.62
2022-10-12T08:36:28.107Z,43.26
2022-10-12T08:39:15.102Z,43.53
2022-10-12T08:42:17.338Z,43.31
2022-10-12T08:45:36.083Z,42.39
2022-10-12T08:48:34.339Z,40.32
2022-10-12T08:51:26.049Z,37.78
2022-10-12T08:54:21.100Z,37.16
2022-10-12T08:57:09.070Z,37.53
2022-10-12T08:59:56.208Z,36.61
2022-10-12T09:02:58.082Z,36.22
2022-10-12T09:06:00.345Z,35.71
2022-10-12T09:09:02.070Z,35.41
2022-10-12T09:12:15.886Z,34.72
2022-10-12T09:15:07.098Z,33.15
2022-10-12T09:17:55.687Z,30.85
2022-10-12T09:20:47.068Z,30.08
2022-10-12T09:23:45.053Z,28.48
2022-10-12T09:26:37.578Z,29.00
2022-10-12T09:29:33.019Z,27.28
2022-10-12T09:32:47.052Z,26.89
2022-10-12T09:35:34.033Z,25.03
2022-10-12T09:38:14.521Z,25.10
2022-10-12T09:41:01.021Z,24.68
2022-10-12T09:43:41.810Z,24.64
2022-10-12T09:46:30.008Z,28.07
2022-10-12T09:49:17.053Z,26.20
2022-10-12T09:52:06.126Z,27.06
2022-10-12T09:55:03.591Z,27.70
2022-10-12T09:57:49.130Z,28.22
2022-10-12T10:00:39.016Z,32.25
2022-10-12T10:03:31.757Z,32.52
2022-10-12T10:06:19.014Z,30.05
2022-10-12T10:09:05.968Z,25.57
2022-10-12T10:11:46.432Z,25.46
2022-10-12T10:14:33.017Z,26.88
2022-10-12T10:17:23.986Z,28.39
2022-10-12T10:20:11.980Z,29.58
2022-10-12T10:22:58.996Z,29.53
2022-10-12T10:25:46.116Z,32.92
2022-10-12T10:28:31.978Z,33.85
2022-10-12T10:31:21.580Z,37.80
2022-10-12T10:34:28.964Z,40.45
2022-10-12T10:37:26.971Z,42.08
2022-10-12T10:40:09.041Z,42.88
2022-10-12T10:42:59.958Z,42.83
2022-10-12T10:45:51.078Z,42.43
2022-10-12T10:48:54.962Z,42.47
2022-10-12T10:52:07.977Z,41.55
2022-10-12T10:54:55.958Z,41.97
2022-10-12T10:57:42.954Z,42.21
2022-10-12T11:00:38.522Z,41.38
2022-10-12T11:03:49.936Z,40.47
2022-10-12T11:06:38.927Z,40.55
2022-10-12T11:09:40.937Z,41.64
2022-10-12T11:12:36.242Z,43.32
2022-10-12T11:15:34.043Z,44.23
2022-10-12T11:18:25.886Z,44.40
2022-10-12T11:21:18.916Z,45.12
2022-10-12T11:24:22.903Z,45.24
2022-10-12T11:27:52.796Z,45.52
2022-10-12T11:30:47.916Z,46.52
2022-10-12T11:33:35.260Z,46.27
2022-10-12T11:36:26.902Z,44.84
2022-10-12T11:39:22.626Z,44.85
2022-10-12T11:42:21.751Z,45.09
2022-10-12T11:45:08.883Z,44.79
2022-10-12T11:47:54.692Z,46.29
2022-10-12T11:50:52.882Z,46.35
2022-10-12T11:53:33.226Z,46.93
2022-10-12T11:56:40.961Z,46.72
2022-10-12T11:59:52.859Z,46.89
2022-10-12T12:02:50.012Z,47.53
2022-10-12T12:05:39.892Z,48.52
2022-10-12T12:08:55.889Z,48.39
2022-10-12T12:11:42.846Z,48.10
2022-10-12T12:14:28.938Z,48.16
2022-10-12T12:17:29.309Z,48.49
2022-10-12T12:20:53.922Z,47.82
2022-10-12T12:23:48.847Z,48.00
2022-10-12T12:26:43.835Z,48.20
2022-10-12T12:29:34.842Z,49.07
2022-10-12T12:32:21.841Z,48.83
2022-10-12T12:35:02.350Z,48.96
2022-10-12T12:37:48.854Z,49.28
2022-10-12T12:40:29.719Z,49.55
2022-10-12T12:43:47.950Z,49.22
2022-10-12T12:47:06.005Z,49.26
2022-10-12T12:50:14.827Z,49.60
2022-10-12T12:53:21.091Z,50.29
2022-10-12T12:56:31.833Z,50.50
2022-10-12T12:59:29.040Z,50.81
2022-10-12T13:02:26.815Z,51.18
2022-10-12T13:05:10.193Z,50.94
2022-10-12T13:08:15.799Z,51.00
2022-10-12T13:11:17.764Z,51.16
2022-10-12T13:14:18.909Z,51.41
2022-10-12T13:17:44.079Z,51.40
2022-10-12T13:20:38.785Z,51.28
2022-10-12T13:23:32.787Z,51.40
2022-10-12T13:26:25.912Z,52.41
2022-10-12T13:29:08.744Z,53.07
2022-10-12T13:31:59.773Z,53.43
2022-10-12T13:34:49.883Z,53.81
2022-10-12T13:37:38.759Z,54.24
2022-10-12T13:40:42.959Z,53.82
2022-10-12T13:43:34.758Z,54.01
2022-10-12T13:46:16.882Z,54.04
2022-10-12T13:49:04.777Z,54.39
2022-10-12T13:51:44.915Z,54.31
2022-10-12T13:54:32.736Z,54.04
2022-10-12T13:57:38.759Z,54.47
2022-10-12T14:00:25.230Z,54.83
2022-10-12T14:03:17.736Z,55.56
2022-10-12T14:06:04.792Z,55.93
2022-10-12T14:08:44.799Z,56.28
2022-10-12T14:11:33.753Z,57.23
2022-10-12T14:14:36.695Z,57.04
2022-10-12T14:17:26.874Z,57.47
2022-10-12T14:20:43.740Z,57.75
2022-10-12T14:23:29.804Z,57.88
2022-10-12T14:26:30.682Z,57.32
2022-10-12T14:29:33.130Z,57.62
2022-10-12T14:32:19.723Z,57.03
2022-10-12T14:35:35.818Z,57.10
2022-10-12T14:38:48.706Z,57.19
2022-10-12T14:41:56.786Z,57.31
2022-10-12T14:44:52.678Z,56.59
2022-10-12T14:47:39.885Z,56.27
2022-10-12T14:50:27.690Z,57.00
2022-10-12T14:53:22.680Z,56.58
2022-10-12T14:56:03.086Z,54.89
2022-10-12T14:58:49.726Z,53.79
2022-10-12T15:01:30.235Z,53.20
2022-10-12T15:04:16.688Z,52.50
2022-10-12T15:06:57.154Z,53.85
2022-10-12T15:09:43.665Z,53.36
2022-10-12T15:27:23.948Z,54.14
2022-10-12T15:30:04.871Z,54.03
2022-10-12T15:32:51.964Z,53.89
2022-10-12T15:35:34.948Z,53.73
2022-10-12T15:38:21.973Z,53.81
2022-10-12T15:41:09.967Z,53.62
2022-10-12T15:43:50.270Z,53.67
2022-10-12T15:46:36.957Z,53.56
2022-10-12T15:49:19.713Z,53.89
2022-10-12T15:52:01.076Z,53.73
2022-10-12T15:54:49.046Z,54.23
2022-10-12T15:57:29.081Z,54.15
2022-10-12T16:00:16.941Z,54.24
2022-10-12T16:03:03.976Z,54.76
2022-10-12T16:05:46.097Z,54.87
2022-10-12T16:08:32.944Z,54.74
2022-10-12T16:11:15.257Z,54.51
2022-10-12T16:14:02.902Z,55.06
2022-10-12T16:16:43.387Z,54.90
2022-10-12T16:19:29.907Z,54.92
2022-10-12T16:22:10.364Z,54.84
2022-10-12T16:24:57.019Z,54.93
2022-10-12T16:27:50.910Z,55.03
2022-10-12T16:30:37.900Z,55.02
2022-10-12T16:33:24.940Z,55.20
2022-10-12T16:36:22.953Z,55.15
2022-10-12T16:39:03.176Z,55.51
2022-10-12T16:41:49.930Z,55.65
2022-10-12T16:44:36.898Z,55.79
2022-10-12T16:47:23.922Z,55.80
2022-10-12T16:50:04.002Z,55.76
2022-10-12T16:52:50.893Z,56.10
2022-10-12T16:55:37.905Z,56.25
2022-10-12T16:58:24.859Z,56.53
2022-10-12T17:01:11.962Z,56.73
2022-10-12T17:03:55.298Z,56.56
2022-10-12T17:06:42.894Z,56.38
2022-10-12T17:09:23.313Z,56.64
2022-10-12T17:12:09.833Z,56.94
2022-10-12T17:14:56.901Z,57.51
2022-10-12T17:17:36.939Z,57.45
2022-10-12T17:20:23.871Z,57.08
2022-10-12T17:23:10.839Z,57.39
2022-10-12T17:26:05.836Z,57.69
2022-10-12T17:28:53.936Z,57.85
2022-10-12T17:31:42.088Z,58.11
2022-10-12T17:34:47.428Z,58.17
2022-10-12T17:37:36.064Z,58.40
2022-10-12T17:40:20.211Z,58.38
2022-10-12T17:43:21.553Z,58.60
2022-10-12T17:46:01.159Z,58.28
2022-10-12T17:48:47.838Z,58.35
2022-10-12T17:51:27.937Z,58.63
2022-10-12T17:54:15.820Z,59.10
2022-10-12T17:56:56.091Z,58.00
2022-10-12T17:59:42.851Z,57.83
2022-10-12T18:02:22.913Z,58.28
2022-10-12T18:05:09.813Z,58.47
2022-10-12T18:07:49.952Z,58.06
2022-10-12T18:10:36.798Z,57.77
2022-10-12T18:13:16.941Z,58.11
2022-10-12T18:16:03.816Z,58.34
2022-10-12T18:18:51.778Z,57.85
2022-10-12T18:21:33.191Z,58.04
2022-10-12T18:24:23.774Z,58.60
2022-10-12T18:27:10.898Z,58.66
2022-10-12T18:29:50.799Z,58.63
2022-10-12T18:32:38.804Z,58.52
2022-10-12T18:35:18.870Z,58.64
2022-10-12T18:38:05.807Z,58.28
2022-10-12T18:40:47.584Z,58.57
2022-10-12T18:43:34.788Z,58.83
2022-10-12T18:46:19.990Z,58.56
2022-10-12T18:49:11.756Z,58.89
2022-10-12T18:51:59.790Z,58.54
2022-10-12T18:54:40.252Z,58.83
2022-10-12T18:57:31.134Z,58.69
2022-10-12T19:00:12.442Z,59.05
2022-10-12T19:02:58.742Z,59.00
2022-10-12T19:05:39.170Z,58.89
2022-10-12T19:08:25.770Z,58.95
2022-10-12T19:11:08.527Z,59.18
2022-10-12T19:13:55.730Z,59.22
2022-10-12T19:16:36.181Z,58.98
2022-10-12T19:19:27.705Z,59.36
2022-10-12T19:22:08.117Z,60.14
2022-10-12T19:24:54.735Z,60.22
2022-10-12T19:27:48.704Z,60.27
2022-10-12T19:30:35.816Z,60.66
2022-10-12T19:33:15.674Z,60.78
2022-10-12T19:35:56.168Z,61.19
2022-10-12T19:38:42.709Z,61.15
2022-10-12T19:41:29.709Z,60.71
2022-10-12T19:44:17.704Z,60.98
2022-10-12T19:47:00.083Z,61.26
2022-10-12T19:49:46.717Z,60.87
2022-10-12T19:52:33.686Z,61.99
2022-10-12T19:55:13.922Z,61.59
2022-10-12T19:58:00.715Z,62.16
2022-10-12T20:00:49.699Z,61.38
2022-10-12T20:03:37.696Z,61.83
2022-10-12T20:06:17.781Z,61.67
2022-10-12T20:09:07.725Z,61.82
2022-10-12T20:11:54.665Z,61.62
2022-10-12T20:14:41.655Z,61.75
2022-10-12T20:17:28.651Z,61.88
2022-10-12T20:20:15.674Z,62.22
2022-10-12T20:22:55.797Z,61.98
2022-10-12T20:25:56.626Z,61.94
2022-10-12T20:28:44.726Z,62.13
2022-10-12T20:31:24.980Z,62.13
2022-10-12T20:34:11.629Z,62.09
2022-10-12T20:37:05.628Z,62.26
2022-10-12T20:39:49.400Z,62.20
2022-10-12T20:42:36.638Z,62.50
2022-10-12T20:45:23.641Z,62.65
2022-10-12T20:48:03.751Z,62.98
2022-10-12T20:50:50.594Z,62.87
2022-10-12T20:53:37.577Z,62.58
2022-10-12T20:56:18.305Z,62.39
2022-10-12T20:59:06.614Z,62.56
2022-10-12T21:01:53.610Z,62.96
2022-10-12T21:04:40.622Z,62.99
2022-10-12T21:07:27.566Z,62.38
2022-10-12T21:10:14.624Z,63.18
2022-10-12T21:13:01.602Z,62.97
2022-10-12T21:15:41.681Z,63.10
2022-10-12T21:18:28.599Z,63.07
2022-10-12T21:21:18.624Z,63.39
2022-10-12T21:24:07.571Z,62.79
2022-10-12T21:26:47.681Z,62.97
2022-10-12T21:29:34.549Z,62.98
2022-10-12T21:32:21.611Z,63.00
2022-10-12T21:35:08.609Z,63.29
2022-10-12T21:37:48.762Z,62.93
2022-10-12T21:40:35.588Z,63.24
2022-10-12T21:43:22.626Z,63.61
2022-10-12T21:46:10.680Z,63.60
2022-10-12T21:48:58.565Z,63.85
2022-10-12T21:51:45.552Z,63.72
2022-10-12T21:54:32.627Z,63.89
2022-10-12T21:57:19.509Z,63.64
2022-10-12T21:59:59.790Z,64.03
2022-10-12T22:02:52.506Z,64.23
2022-10-12T22:05:39.551Z,63.89
2022-10-12T22:08:26.507Z,64.26
2022-10-12T22:11:12.603Z,64.46
2022-10-12T22:14:04.531Z,64.48
2022-10-12T22:16:44.643Z,64.46
2022-10-12T22:19:31.497Z,64.58
2022-10-12T22:22:18.626Z,64.90
2022-10-12T22:25:05.620Z,65.34
2022-10-12T22:27:52.539Z,65.42
2022-10-12T22:30:42.501Z,65.41
2022-10-12T22:33:30.517Z,64.83
2022-10-12T22:36:12.602Z,65.34
2022-10-12T22:38:59.530Z,65.31
2022-10-12T22:41:39.579Z,65.16
2022-10-12T22:44:26.470Z,65.49
2022-10-12T22:47:06.659Z,65.45
2022-10-12T22:49:53.474Z,65.59
2022-10-12T22:52:33.666Z,65.51
2022-10-12T22:55:20.477Z,65.65
2022-10-12T22:58:00.557Z,65.91
2022-10-12T23:00:48.532Z,65.82
2022-10-12T23:03:28.532Z,65.76
2022-10-12T23:06:25.456Z,65.80
2022-10-12T23:09:12.446Z,65.86
2022-10-12T23:11:52.852Z,65.90
2022-10-12T23:14:39.475Z,65.96
2022-10-12T23:17:19.797Z,66.49
2022-10-12T23:20:06.475Z,66.63
2022-10-12T23:22:46.800Z,66.49
2022-10-12T23:25:33.409Z,66.56
2022-10-12T23:28:20.562Z,67.01
2022-10-12T23:31:00.451Z,67.07
2022-10-12T23:33:40.944Z,66.79
2022-10-12T23:36:30.438Z,67.23
2022-10-12T23:39:10.952Z,67.16
2022-10-12T23:41:57.396Z,67.05
2022-10-12T23:44:44.429Z,66.96
2022-10-12T23:47:31.387Z,67.59
2022-10-12T23:50:11.775Z,67.31
2022-10-12T23:52:58.382Z,67.61
2022-10-12T23:55:45.398Z,67.39
2022-10-12T23:58:33.406Z,67.39
